createdAt,value
2022-09-15T00:00:11.051Z,19.41
2022-09-15T00:03:13.966Z,19.36
2022-09-15T00:06:17.237Z,19.35
2022-09-15T00:09:20.412Z,19.39
2022-09-15T00:12:22.888Z,19.40
2022-09-15T00:15:25.152Z,19.40
2022-09-15T00:18:27.244Z,19.43
2022-09-15T00:21:31.287Z,19.22
2022-09-15T00:24:34.865Z,19.11
2022-09-15T00:27:37.244Z,19.02
2022-09-15T00:30:45.004Z,19.02
2022-09-15T00:33:48.646Z,19.09
2022-09-15T00:36:51.748Z,19.11
2022-09-15T00:39:55.181Z,19.13
2022-09-15T00:42:59.532Z,19.12
2022-09-15T00:46:02.232Z,19.19
2022-09-15T00:49:07.497Z,19.28
2022-09-15T00:52:24.621Z,19.40
2022-09-15T00:55:27.468Z,19.46
2022-09-15T00:58:33.879Z,19.53
2022-09-15T01:01:36.533Z,19.53
2022-09-15T01:04:39.553Z,19.57
2022-09-15T01:07:44.138Z,19.62
2022-09-15T01:10:47.277Z,19.60
2022-09-15T01:13:49.812Z,19.61
2022-09-15T01:16:58.582Z,19.52
2022-09-15T01:20:10.629Z,19.49
2022-09-15T01:23:12.998Z,19.50
2022-09-15T01:26:34.210Z,19.44
2022-09-15T01:29:42.562Z,19.45
2022-09-15T01:33:07.302Z,19.42
2022-09-15T01:36:14.843Z,19.42
2022-09-15T01:39:21.863Z,19.44
2022-09-15T01:42:25.607Z,19.44
2022-09-15T01:45:32.036Z,19.43
2022-09-15T01:48:35.453Z,19.41
2022-09-15T01:51:39.794Z,19.37
2022-09-15T01:54:46.445Z,19.35
2022-09-15T01:57:49.854Z,19.33
2022-09-15T02:00:56.118Z,19.36
2022-09-15T02:04:11.109Z,19.42
2022-09-15T02:07:22.399Z,19.45
2022-09-15T02:10:51.313Z,19.41
2022-09-15T02:14:01.647Z,19.33
2022-09-15T02:17:06.371Z,19.33
2022-09-15T02:20:15.825Z,19.26
2022-09-15T02:23:29.039Z,19.24
2022-09-15T02:26:34.182Z,19.24
2022-09-15T02:29:37.492Z,19.18
2022-09-15T02:32:46.217Z,19.20
2022-09-15T02:35:49.618Z,19.17
2022-09-15T02:38:58.649Z,19.14
2022-09-15T02:42:02.881Z,19.11
2022-09-15T02:45:07.397Z,19.07
2022-09-15T02:48:10.151Z,19.11
2022-09-15T02:51:13.242Z,19.07
2022-09-15T02:54:16.235Z,19.08
2022-09-15T02:57:18.541Z,19.12
2022-09-15T03:00:21.241Z,19.09
2022-09-15T03:03:23.906Z,19.27
2022-09-15T03:06:28.081Z,19.31
2022-09-15T03:09:30.670Z,19.35
2022-09-15T03:12:38.307Z,19.38
2022-09-15T03:15:40.939Z,19.39
2022-09-15T03:18:43.343Z,19.34
2022-09-15T03:21:45.789Z,19.33
2022-09-15T03:24:48.061Z,19.28
2022-09-15T03:27:50.743Z,19.21
2022-09-15T03:30:53.937Z,19.23
2022-09-15T03:33:57.035Z,19.19
2022-09-15T03:37:00.330Z,19.16
2022-09-15T03:40:04.423Z,19.17
2022-09-15T03:43:07.352Z,19.08
2022-09-15T03:46:11.808Z,19.09
2022-09-15T03:49:14.224Z,19.00
2022-09-15T03:52:17.221Z,18.93
2022-09-15T03:55:20.180Z,18.97
2022-09-15T03:58:22.874Z,19.00
2022-09-15T04:01:26.468Z,18.94
2022-09-15T04:04:29.267Z,18.90
2022-09-15T04:07:33.227Z,18.97
2022-09-15T04:10:39.058Z,18.91
2022-09-15T04:13:42.992Z,18.95
2022-09-15T04:16:45.730Z,18.91
2022-09-15T04:19:48.371Z,18.86
2022-09-15T04:22:51.418Z,18.83
2022-09-15T04:26:01.668Z,18.88
2022-09-15T04:29:05.181Z,18.87
2022-09-15T04:32:08.256Z,18.84
2022-09-15T04:35:11.176Z,18.81
2022-09-15T04:38:15.171Z,18.84
2022-09-15T04:41:19.705Z,18.91
2022-09-15T04:44:24.227Z,19.03
2022-09-15T04:47:28.434Z,19.12
2022-09-15T04:50:32.503Z,19.22
2022-09-15T04:53:36.140Z,19.26
2022-09-15T04:56:39.247Z,19.28
2022-09-15T04:59:42.467Z,19.32
2022-09-15T05:02:50.548Z,19.40
2022-09-15T05:05:52.940Z,19.46
2022-09-15T05:08:56.424Z,19.50
2022-09-15T05:11:58.937Z,19.54
2022-09-15T05:15:01.700Z,19.55
2022-09-15T05:18:04.700Z,19.57
2022-09-15T05:21:07.868Z,19.57
2022-09-15T05:24:10.365Z,19.60
2022-09-15T05:27:12.636Z,19.65
2022-09-15T05:30:36.287Z,19.68
2022-09-15T05:33:37.954Z,19.67
2022-09-15T05:36:40.862Z,19.58
2022-09-15T05:39:44.510Z,19.58
2022-09-15T05:42:47.253Z,19.54
2022-09-15T05:45:56.451Z,19.50
2022-09-15T05:48:59.344Z,19.53
2022-09-15T05:52:03.094Z,19.55
2022-09-15T05:55:07.101Z,19.63
2022-09-15T05:58:11.505Z,19.68
2022-09-15T06:01:18.672Z,19.71
2022-09-15T06:04:21.661Z,19.85
2022-09-15T06:07:24.439Z,19.96
2022-09-15T06:10:26.947Z,19.98
2022-09-15T06:13:32.445Z,19.97
2022-09-15T06:16:36.321Z,19.97
2022-09-15T06:19:39.258Z,19.97
2022-09-15T06:22:44.276Z,19.99
2022-09-15T06:25:47.054Z,20.00
2022-09-15T06:28:51.267Z,20.06
2022-09-15T06:31:54.439Z,20.15
2022-09-15T06:34:57.350Z,20.22
2022-09-15T06:38:00.663Z,20.18
2022-09-15T06:41:03.698Z,20.24
2022-09-15T06:44:06.242Z,20.27
2022-09-15T06:47:08.613Z,20.32
2022-09-15T06:50:11.197Z,20.39
2022-09-15T06:53:13.798Z,20.46
2022-09-15T06:56:18.021Z,20.46
2022-09-15T06:59:20.891Z,20.51
2022-09-15T07:02:23.426Z,20.43
2022-09-15T07:05:26.046Z,20.50
2022-09-15T07:08:29.267Z,20.51
2022-09-15T07:11:35.005Z,20.57
2022-09-15T07:14:39.912Z,20.63
2022-09-15T07:17:43.269Z,20.71
2022-09-15T07:20:49.581Z,20.81
2022-09-15T07:23:52.781Z,21.00
2022-09-15T07:26:55.568Z,21.49
2022-09-15T07:30:01.820Z,22.07
2022-09-15T07:33:05.219Z,22.30
2022-09-15T07:36:08.418Z,22.51
2022-09-15T07:39:11.609Z,22.89
2022-09-15T07:42:15.550Z,23.08
2022-09-15T07:45:18.190Z,23.13
2022-09-15T07:48:25.714Z,22.99
2022-09-15T07:51:30.348Z,22.77
2022-09-15T07:54:33.509Z,22.78
2022-09-15T07:57:36.807Z,22.74
2022-09-15T08:00:41.805Z,22.72
2022-09-15T08:03:46.155Z,22.70
2022-09-15T08:06:49.367Z,22.75
2022-09-15T08:09:53.517Z,22.64
2022-09-15T08:12:56.971Z,22.69
2022-09-15T08:16:07.400Z,22.90
2022-09-15T08:19:10.030Z,23.33
2022-09-15T08:22:12.613Z,23.62
2022-09-15T08:25:14.885Z,23.96
2022-09-15T08:28:17.859Z,24.05
2022-09-15T08:31:20.479Z,24.07
2022-09-15T08:34:25.025Z,24.09
2022-09-15T08:37:27.954Z,24.18
2022-09-15T08:40:36.500Z,24.48
2022-09-15T08:43:46.752Z,24.66
2022-09-15T08:47:20.455Z,24.61
2022-09-15T08:50:28.371Z,24.54
2022-09-15T08:53:36.315Z,24.56
2022-09-15T08:56:40.265Z,24.46
2022-09-15T08:59:43.345Z,24.57
2022-09-15T09:02:54.358Z,24.69
2022-09-15T09:06:04.197Z,24.93
2022-09-15T09:09:09.561Z,25.26
2022-09-15T09:12:20.190Z,25.45
2022-09-15T09:15:41.476Z,25.59
2022-09-15T09:19:04.245Z,25.49
2022-09-15T09:22:12.246Z,25.77
2022-09-15T09:25:27.303Z,25.84
2022-09-15T09:28:39.677Z,25.72
2022-09-15T09:31:42.023Z,25.68
2022-09-15T09:35:10.646Z,25.73
2022-09-15T09:38:20.886Z,25.84
2022-09-15T09:41:36.039Z,26.02
2022-09-15T09:44:39.852Z,26.20
2022-09-15T09:47:43.456Z,26.43
2022-09-15T09:50:49.297Z,26.57
2022-09-15T09:53:54.251Z,26.54
2022-09-15T09:56:59.272Z,26.42
2022-09-15T10:00:02.927Z,26.67
2022-09-15T10:03:22.245Z,26.66
2022-09-15T10:06:27.092Z,26.56
2022-09-15T10:09:33.280Z,26.47
2022-09-15T10:12:40.133Z,26.47
2022-09-15T10:15:43.295Z,26.45
2022-09-15T10:18:50.900Z,26.31
2022-09-15T10:21:57.190Z,26.33
2022-09-15T10:25:03.460Z,26.22
2022-09-15T10:28:08.929Z,26.16
2022-09-15T10:31:13.728Z,26.27
2022-09-15T10:34:26.583Z,26.56
2022-09-15T10:37:45.638Z,26.71
2022-09-15T10:40:54.880Z,26.89
2022-09-15T10:44:15.573Z,26.89
2022-09-15T10:47:36.668Z,26.91
2022-09-15T10:50:57.001Z,26.82
2022-09-15T10:54:15.542Z,26.67
2022-09-15T10:57:33.082Z,26.68
2022-09-15T11:00:44.704Z,26.88
2022-09-15T11:03:51.059Z,26.89
2022-09-15T11:07:01.195Z,26.83
2022-09-15T11:10:03.462Z,26.88
2022-09-15T11:13:20.890Z,26.88
2022-09-15T11:16:27.331Z,26.94
2022-09-15T11:19:32.825Z,26.97
2022-09-15T11:22:39.310Z,26.87
2022-09-15T11:25:45.159Z,26.67
2022-09-15T11:29:04.950Z,26.42
2022-09-15T11:32:11.019Z,26.09
2022-09-15T11:35:33.027Z,25.67
2022-09-15T11:38:48.845Z,25.57
2022-09-15T11:41:59.983Z,25.49
2022-09-15T11:45:03.316Z,25.37
2022-09-15T11:48:13.590Z,25.27
2022-09-15T11:51:19.149Z,25.13
2022-09-15T11:54:29.045Z,25.23
2022-09-15T11:57:57.943Z,25.41
2022-09-15T12:01:33.486Z,25.73
2022-09-15T12:04:41.455Z,25.88
2022-09-15T12:07:50.814Z,26.06
2022-09-15T12:11:03.111Z,25.86
2022-09-15T12:14:06.630Z,25.53
2022-09-15T12:17:13.298Z,25.19
2022-09-15T12:20:29.289Z,24.97
2022-09-15T12:23:39.847Z,24.56
2022-09-15T12:26:43.662Z,24.54
2022-09-15T12:29:56.531Z,24.58
2022-09-15T12:32:58.634Z,24.58
2022-09-15T12:36:19.744Z,24.53
2022-09-15T12:39:31.368Z,24.48
2022-09-15T12:42:35.593Z,24.57
2022-09-15T12:45:38.996Z,24.68
2022-09-15T12:48:47.383Z,24.78
2022-09-15T12:51:51.624Z,24.87
2022-09-15T12:55:02.016Z,24.71
2022-09-15T12:58:09.233Z,24.61
2022-09-15T13:01:25.221Z,24.35
2022-09-15T13:04:43.344Z,24.07
2022-09-15T13:07:55.921Z,23.52
2022-09-15T13:11:09.367Z,19.52
2022-09-15T13:14:47.117Z,17.06
2022-09-15T13:17:49.529Z,16.35
2022-09-15T13:20:58.805Z,16.21
2022-09-15T13:24:02.801Z,16.26
2022-09-15T13:27:06.198Z,16.39
2022-09-15T13:30:21.051Z,16.43
2022-09-15T13:44:36.566Z,16.38
2022-09-15T13:51:42.687Z,16.48
2022-09-15T13:55:04.473Z,16.59
2022-09-15T14:01:53.347Z,16.88
2022-09-15T14:48:41.058Z,17.27
2022-09-15T14:51:44.284Z,17.32
2022-09-15T14:54:46.177Z,17.34
2022-09-15T14:57:53.335Z,17.35
2022-09-15T15:00:55.117Z,17.38
2022-09-15T15:04:03.089Z,17.43
2022-09-15T15:07:04.976Z,17.38
2022-09-15T15:10:07.123Z,17.35
2022-09-15T15:13:14.090Z,17.32
2022-09-15T15:16:26.500Z,17.39
2022-09-15T15:19:33.154Z,17.43
2022-09-15T15:22:35.750Z,17.45
2022-09-15T15:25:37.679Z,17.54
2022-09-15T15:28:39.518Z,17.58
2022-09-15T15:31:41.397Z,17.56
2022-09-15T15:34:50.598Z,17.56
2022-09-15T15:38:25.316Z,17.56
2022-09-15T15:41:28.595Z,17.54
2022-09-15T15:44:31.059Z,17.48
2022-09-15T15:47:35.624Z,17.45
2022-09-15T15:50:37.581Z,17.45
2022-09-15T15:53:40.165Z,17.44
2022-09-15T15:56:42.805Z,17.50
2022-09-15T15:59:46.377Z,17.54
2022-09-15T16:02:48.623Z,17.55
2022-09-15T16:05:52.149Z,17.61
2022-09-15T16:08:56.003Z,17.55
2022-09-15T16:11:58.310Z,17.61
2022-09-15T16:15:00.216Z,17.58
2022-09-15T16:18:02.138Z,17.52
2022-09-15T16:21:04.094Z,17.46
2022-09-15T16:24:06.680Z,17.46
2022-09-15T16:27:13.805Z,17.52
2022-09-15T16:30:15.744Z,17.50
2022-09-15T16:33:18.524Z,17.50
2022-09-15T16:36:20.560Z,17.45
2022-09-15T16:39:22.624Z,17.40
2022-09-15T16:42:24.490Z,17.35
2022-09-15T16:45:38.053Z,17.37
2022-09-15T16:48:43.264Z,17.50
2022-09-15T16:51:45.226Z,17.49
2022-09-15T16:54:47.121Z,17.47
2022-09-15T16:57:49.816Z,17.44
2022-09-15T17:00:52.693Z,17.45
2022-09-15T17:03:54.787Z,17.43
2022-09-15T17:06:56.807Z,17.35
2022-09-15T17:09:58.835Z,17.30
2022-09-15T17:13:01.561Z,17.24
2022-09-15T17:16:04.201Z,17.23
2022-09-15T17:19:06.259Z,17.17
2022-09-15T17:22:08.742Z,17.12
2022-09-15T17:25:19.971Z,17.08
2022-09-15T17:28:23.990Z,17.07
2022-09-15T17:31:28.936Z,17.04
2022-09-15T17:34:30.909Z,17.03
2022-09-15T17:37:32.842Z,17.03
2022-09-15T17:40:35.727Z,17.09
2022-09-15T17:43:37.708Z,17.15
2022-09-15T17:46:39.961Z,17.04
2022-09-15T17:49:42.085Z,16.97
2022-09-15T17:52:44.415Z,16.90
2022-09-15T17:55:46.463Z,16.88
2022-09-15T17:58:48.713Z,16.84
2022-09-15T18:01:50.996Z,16.82
2022-09-15T18:04:53.033Z,16.80
2022-09-15T18:07:56.290Z,16.80
2022-09-15T18:10:59.130Z,16.77
2022-09-15T18:14:01.259Z,16.76
2022-09-15T18:17:03.236Z,16.77
2022-09-15T18:20:11.291Z,16.73
2022-09-15T18:23:14.513Z,16.76
2022-09-15T18:26:16.470Z,16.78
2022-09-15T18:29:18.786Z,16.74
2022-09-15T18:32:20.927Z,16.78
2022-09-15T18:35:22.995Z,16.71
2022-09-15T18:38:25.323Z,16.69
2022-09-15T18:41:28.390Z,16.66
2022-09-15T18:44:30.587Z,16.69
2022-09-15T18:47:33.743Z,16.73
2022-09-15T18:50:38.837Z,16.69
2022-09-15T18:53:41.369Z,16.62
2022-09-15T18:56:46.206Z,16.58
2022-09-15T18:59:49.031Z,16.57
2022-09-15T19:03:02.034Z,16.55
2022-09-15T19:06:05.796Z,16.56
2022-09-15T19:09:13.020Z,16.63
2022-09-15T19:12:19.118Z,16.57
2022-09-15T19:15:24.371Z,16.63
2022-09-15T19:18:48.592Z,16.57
2022-09-15T19:21:54.986Z,16.55
2022-09-15T19:24:59.548Z,16.54
2022-09-15T19:28:02.606Z,16.39
2022-09-15T19:31:11.190Z,16.35
2022-09-15T19:34:20.291Z,16.42
2022-09-15T19:37:59.920Z,16.39
2022-09-15T19:45:03.307Z,16.33
